Airfield :
LOGIN :

Register | Disclaimer

   EN    FR    IT 

 










Legend :    VFR   Marginal VFR   IFR   Intensive IFR   Very Intensive IFR
Visi :
Ceiling :
>= 8 km
>= 3000ft
5 to 8 km
1000 to 3000 ft
1500m to 5 km
500 to 1000 ft
800 to 1500m
200 to 500 ft
< 800m
< 200 ft
Symbols :   Thunderstorms  Fog  Heavy snow  Heavy precipitations  Wind > 20 kt
SIGMETs :     Misc.  Thunderstorms  Icing  Turbulence  Mountain Waves  Volcanic Ashes







- Airport Elevation : 1036 ft
- IATA code : ERF


EDDE - Erfurt

CURRENT METAR :
  • 241550Z 09003KT 050V140 6000 FEW013 SCT038 BKN083 15/15 Q1019 NOSIG

EXPIRED METARs :
  • 241520Z 03004KT 5000 BR FEW003 SCT033 BKN083 15/15 Q1019 RERA NOSIG
  • 241450Z 03005KT 350V050 4000 RA FEW003 SCT070 OVC100 15/15 Q1019 TEMPO 5000 NSW
  • 241350Z 05005KT 3000 RA SCT004 OVC100 15/15 Q1020 TEMPO 5000 NSW BKN005
  • 241320Z 08007KT 040V120 4000 -RA BKN004 15/15 Q1020 NOSIG
  • 241250Z 06009KT 8000 -RA BKN007 OVC083 15/15 Q1020 BECMG SCT010

TAF AMD TAF EDDE
Valid from the 24 at 13:00 until the 25 at 12:00 UTC


241312Z 2413/2512 07009KT 9999 SCT045
PROB30
TEMPO 2413/2421 09015G25KT 4000 TSRA BKN004 BKN030CB
BECMG 2417/2419 07004KT
No reported NOTAMs for that airfield.



MET'MAP, your aeronautical weather chart ! - Copyright ORBIFLY December 2007 - Disclaimer

ORBIFLY MET'MAP TEAM :

Programming & Development : Alexandra Zaïnal
Concept & Development : Baudouin d'Aumeries
Co-Development & Prog : Marc-Olivier Méhu
Technical & hardware support : Manuel Goepfert

Contact : metmap@orbifly.com




SOURCES & CREDITS :

   NOAA